sensor_id;sensor_type;location;lat;lon;timestamp;P1;durP1;ratioP1;P2;durP2;ratioP2
12798;SDS011;19250;42.646;26.980;2023-10-08T01:52:53;10.30;;;7.40;;
12798;SDS011;19250;42.646;26.980;2023-10-08T01:55:22;9.10;;;7.03;;
12798;SDS011;19250;42.646;26.980;2023-10-08T01:57:50;10.68;;;7.30;;
12798;SDS011;19250;42.646;26.980;2023-10-08T02:00:18;14.20;;;7.47;;
12798;SDS011;19250;42.646;26.980;2023-10-08T02:02:46;10.52;;;7.43;;
12798;SDS011;19250;42.646;26.980;2023-10-08T02:05:15;10.23;;;7.80;;
12798;SDS011;19250;42.646;26.980;2023-10-08T02:07:44;10.70;;;8.40;;
12798;SDS011;19250;42.646;26.980;2023-10-08T02:10:12;12.43;;;8.05;;
12798;SDS011;19250;42.646;26.980;2023-10-08T02:12:41;11.18;;;8.00;;
12798;SDS011;19250;42.646;26.980;2023-10-08T02:15:09;12.90;;;7.45;;
12798;SDS011;19250;42.646;26.980;2023-10-08T02:17:37;9.90;;;7.45;;
12798;SDS011;19250;42.646;26.980;2023-10-08T02:20:05;9.73;;;7.05;;
12798;SDS011;19250;42.646;26.980;2023-10-08T02:22:33;10.50;;;7.30;;
12798;SDS011;19250;42.646;26.980;2023-10-08T02:25:01;11.25;;;7.22;;
12798;SDS011;19250;42.646;26.980;2023-10-08T02:27:28;11.13;;;7.07;;
12798;SDS011;19250;42.646;26.980;2023-10-08T02:29:59;12.93;;;7.07;;
12798;SDS011;19250;42.646;26.980;2023-10-08T02:32:31;10.10;;;6.70;;
12798;SDS011;19250;42.646;26.980;2023-10-08T02:34:58;10.60;;;6.82;;
12798;SDS011;19250;42.646;26.980;2023-10-08T02:37:26;9.55;;;6.93;;
12798;SDS011;19250;42.646;26.980;2023-10-08T02:39:53;9.77;;;6.38;;
12798;SDS011;19250;42.646;26.980;2023-10-08T02:42:23;11.02;;;7.15;;
12798;SDS011;19250;42.646;26.980;2023-10-08T02:44:50;9.48;;;7.15;;
12798;SDS011;19250;42.646;26.980;2023-10-08T02:47:20;10.55;;;7.78;;
12798;SDS011;19250;42.646;26.980;2023-10-08T02:49:47;8.68;;;6.90;;
12798;SDS011;19250;42.646;26.980;2023-10-08T02:52:15;10.30;;;7.03;;
12798;SDS011;19250;42.646;26.980;2023-10-08T02:54:43;9.25;;;7.07;;
12798;SDS011;19250;42.646;26.980;2023-10-08T02:57:10;10.52;;;7.07;;
12798;SDS011;19250;42.646;26.980;2023-10-08T02:59:39;9.38;;;6.97;;
12798;SDS011;19250;42.646;26.980;2023-10-08T03:02:08;9.95;;;7.50;;
12798;SDS011;19250;42.646;26.980;2023-10-08T03:04:42;8.85;;;7.10;;
12798;SDS011;19250;42.646;26.980;2023-10-08T03:07:11;10.70;;;7.90;;
12798;SDS011;19250;42.646;26.980;2023-10-08T03:09:46;11.18;;;8.02;;
12798;SDS011;19250;42.646;26.980;2023-10-08T03:12:15;11.68;;;7.70;;
12798;SDS011;19250;42.646;26.980;2023-10-08T03:14:43;10.50;;;7.65;;
12798;SDS011;19250;42.646;26.980;2023-10-08T03:17:27;10.68;;;7.93;;
12798;SDS011;19250;42.646;26.980;2023-10-08T03:19:56;8.90;;;7.60;;
12798;SDS011;19250;42.646;26.980;2023-10-08T03:22:44;9.20;;;6.85;;
12798;SDS011;19250;42.646;26.980;2023-10-08T03:25:12;9.07;;;6.57;;
12798;SDS011;19250;42.646;26.980;2023-10-08T03:27:42;10.30;;;7.07;;
12798;SDS011;19250;42.646;26.980;2023-10-08T03:30:09;11.57;;;6.93;;
12798;SDS011;19250;42.646;26.980;2023-10-08T03:32:40;10.60;;;7.25;;
12798;SDS011;19250;42.646;26.980;2023-10-08T03:35:10;11.57;;;6.75;;
12798;SDS011;19250;42.646;26.980;2023-10-08T03:37:38;10.95;;;7.57;;
12798;SDS011;19250;42.646;26.980;2023-10-08T03:40:11;12.40;;;7.85;;
12798;SDS011;19250;42.646;26.980;2023-10-08T03:42:57;10.83;;;7.37;;
12798;SDS011;19250;42.646;26.980;2023-10-08T03:45:24;10.82;;;6.50;;
12798;SDS011;19250;42.646;26.980;2023-10-08T03:48:09;8.57;;;5.85;;
12798;SDS011;19250;42.646;26.980;2023-10-08T03:50:42;10.88;;;6.43;;
12798;SDS011;19250;42.646;26.980;2023-10-08T03:53:09;9.35;;;6.18;;
12798;SDS011;19250;42.646;26.980;2023-10-08T03:55:38;9.60;;;6.40;;
12798;SDS011;19250;42.646;26.980;2023-10-08T03:58:07;11.17;;;6.23;;
12798;SDS011;19250;42.646;26.980;2023-10-08T04:00:38;9.77;;;7.20;;
12798;SDS011;19250;42.646;26.980;2023-10-08T04:03:08;7.55;;;6.10;;
12798;SDS011;19250;42.646;26.980;2023-10-08T04:05:36;9.45;;;6.00;;
12798;SDS011;19250;42.646;26.980;2023-10-08T04:08:26;9.50;;;5.65;;
12798;SDS011;19250;42.646;26.980;2023-10-08T04:11:07;8.27;;;6.15;;
12798;SDS011;19250;42.646;26.980;2023-10-08T04:13:47;8.27;;;6.13;;
12798;SDS011;19250;42.646;26.980;2023-10-08T04:18:45;8.88;;;6.72;;
12798;SDS011;19250;42.646;26.980;2023-10-08T04:21:17;9.82;;;7.22;;
12798;SDS011;19250;42.646;26.980;2023-10-08T04:23:47;11.52;;;7.30;;
12798;SDS011;19250;42.646;26.980;2023-10-08T04:26:18;11.50;;;7.77;;
12798;SDS011;19250;42.646;26.980;2023-10-08T04:28:49;12.23;;;7.93;;
12798;SDS011;19250;42.646;26.980;2023-10-08T04:31:20;12.50;;;8.52;;
12798;SDS011;19250;42.646;26.980;2023-10-08T04:33:50;15.40;;;9.40;;
12798;SDS011;19250;42.646;26.980;2023-10-08T04:38:46;13.53;;;9.93;;
12798;SDS011;19250;42.646;26.980;2023-10-08T04:41:19;15.43;;;9.90;;
12798;SDS011;19250;42.646;26.980;2023-10-08T04:43:53;13.27;;;8.67;;
12798;SDS011;19250;42.646;26.980;2023-10-08T04:46:21;12.27;;;8.68;;
12798;SDS011;19250;42.646;26.980;2023-10-08T04:49:12;15.45;;;9.57;;
12798;SDS011;19250;42.646;26.980;2023-10-08T04:51:52;12.80;;;9.30;;
12798;SDS011;19250;42.646;26.980;2023-10-08T04:56:55;13.70;;;9.00;;
12798;SDS011;19250;42.646;26.980;2023-10-08T04:59:25;13.80;;;8.60;;
12798;SDS011;19250;42.646;26.980;2023-10-08T05:13:20;12.60;;;8.30;;
12798;SDS011;19250;42.646;26.980;2023-10-08T05:15:56;12.70;;;9.20;;
12798;SDS011;19250;42.646;26.980;2023-10-08T05:18:44;12.80;;;9.20;;
12798;SDS011;19250;42.646;26.980;2023-10-08T05:21:33;12.50;;;9.00;;
12798;SDS011;19250;42.646;26.980;2023-10-08T05:24:17;12.70;;;9.30;;
12798;SDS011;19250;42.646;26.980;2023-10-08T05:26:54;11.10;;;8.80;;
12798;SDS011;19250;42.646;26.980;2023-10-08T05:29:46;13.65;;;8.77;;
12798;SDS011;19250;42.646;26.980;2023-10-08T05:32:36;13.00;;;9.20;;
12798;SDS011;19250;42.646;26.980;2023-10-08T05:35:31;12.73;;;9.63;;
12798;SDS011;19250;42.646;26.980;2023-10-08T05:38:20;13.87;;;9.93;;
12798;SDS011;19250;42.646;26.980;2023-10-08T05:41:14;11.00;;;9.60;;
12798;SDS011;19250;42.646;26.980;2023-10-08T05:51:51;14.55;;;9.20;;
12798;SDS011;19250;42.646;26.980;2023-10-08T05:54:36;11.00;;;8.10;;
12798;SDS011;19250;42.646;26.980;2023-10-08T05:57:22;12.52;;;8.68;;
12798;SDS011;19250;42.646;26.980;2023-10-08T06:00:06;12.90;;;8.50;;
12798;SDS011;19250;42.646;26.980;2023-10-08T06:05:35;11.90;;;8.45;;
12798;SDS011;19250;42.646;26.980;2023-10-08T06:08:11;10.75;;;7.80;;
12798;SDS011;19250;42.646;26.980;2023-10-08T06:10:39;11.25;;;7.25;;
12798;SDS011;19250;42.646;26.980;2023-10-08T06:13:21;9.93;;;6.82;;
12798;SDS011;19250;42.646;26.980;2023-10-08T06:16:11;12.40;;;7.60;;
12798;SDS011;19250;42.646;26.980;2023-10-08T06:31:24;13.40;;;7.70;;
12798;SDS011;19250;42.646;26.980;2023-10-08T06:51:10;16.20;;;7.90;;
12798;SDS011;19250;42.646;26.980;2023-10-08T06:53:39;12.20;;;7.05;;
12798;SDS011;19250;42.646;26.980;2023-10-08T06:56:07;10.07;;;6.60;;
12798;SDS011;19250;42.646;26.980;2023-10-08T06:58:37;10.60;;;7.60;;
12798;SDS011;19250;42.646;26.980;2023-10-08T07:01:06;13.75;;;7.20;;
12798;SDS011;19250;42.646;26.980;2023-10-08T07:23:38;10.00;;;6.40;;
12798;SDS011;19250;42.646;26.980;2023-10-08T07:33:46;9.80;;;6.20;;
12798;SDS011;19250;42.646;26.980;2023-10-08T07:36:22;9.77;;;6.75;;
12798;SDS011;19250;42.646;26.980;2023-10-08T07:38:50;9.73;;;6.15;;
12798;SDS011;19250;42.646;26.980;2023-10-08T07:41:18;10.40;;;5.88;;
12798;SDS011;19250;42.646;26.980;2023-10-08T07:43:46;9.60;;;6.30;;
12798;SDS011;19250;42.646;26.980;2023-10-08T07:46:20;11.15;;;6.70;;
12798;SDS011;19250;42.646;26.980;2023-10-08T07:48:48;11.07;;;6.57;;
12798;SDS011;19250;42.646;26.980;2023-10-08T07:51:15;11.27;;;6.75;;
12798;SDS011;19250;42.646;26.980;2023-10-08T07:53:48;9.50;;;6.60;;
12798;SDS011;19250;42.646;26.980;2023-10-08T07:56:19;11.98;;;6.40;;
12798;SDS011;19250;42.646;26.980;2023-10-08T07:58:47;11.20;;;6.07;;
12798;SDS011;19250;42.646;26.980;2023-10-08T08:01:15;11.10;;;6.90;;
12798;SDS011;19250;42.646;26.980;2023-10-08T08:03:42;10.65;;;6.45;;
12798;SDS011;19250;42.646;26.980;2023-10-08T08:06:11;10.35;;;6.40;;
12798;SDS011;19250;42.646;26.980;2023-10-08T08:08:39;11.50;;;6.60;;
12798;SDS011;19250;42.646;26.980;2023-10-08T08:11:08;8.88;;;6.35;;
12798;SDS011;19250;42.646;26.980;2023-10-08T08:13:42;9.98;;;6.38;;
12798;SDS011;19250;42.646;26.980;2023-10-08T08:23:40;8.57;;;5.80;;
12798;SDS011;19250;42.646;26.980;2023-10-08T08:26:15;10.40;;;6.47;;
12798;SDS011;19250;42.646;26.980;2023-10-08T08:28:54;10.53;;;6.60;;
12798;SDS011;19250;42.646;26.980;2023-10-08T08:31:22;10.30;;;6.30;;
12798;SDS011;19250;42.646;26.980;2023-10-08T08:33:50;9.38;;;6.55;;
12798;SDS011;19250;42.646;26.980;2023-10-08T08:36:26;9.07;;;6.47;;
12798;SDS011;19250;42.646;26.980;2023-10-08T08:38:54;12.52;;;6.75;;
12798;SDS011;19250;42.646;26.980;2023-10-08T08:41:23;11.50;;;7.07;;
12798;SDS011;19250;42.646;26.980;2023-10-08T08:43:52;9.50;;;7.13;;
12798;SDS011;19250;42.646;26.980;2023-10-08T08:46:33;8.95;;;6.43;;
12798;SDS011;19250;42.646;26.980;2023-10-08T08:49:02;10.50;;;6.10;;
12798;SDS011;19250;42.646;26.980;2023-10-08T08:51:33;8.68;;;6.28;;
12798;SDS011;19250;42.646;26.980;2023-10-08T08:54:01;10.50;;;6.38;;
12798;SDS011;19250;42.646;26.980;2023-10-08T08:56:34;9.20;;;5.68;;
12798;SDS011;19250;42.646;26.980;2023-10-08T08:59:04;7.88;;;5.57;;
12798;SDS011;19250;42.646;26.980;2023-10-08T09:01:32;11.35;;;5.93;;
12798;SDS011;19250;42.646;26.980;2023-10-08T09:04:01;12.15;;;5.63;;
12798;SDS011;19250;42.646;26.980;2023-10-08T09:06:30;9.07;;;6.07;;
12798;SDS011;19250;42.646;26.980;2023-10-08T09:08:59;8.77;;;5.45;;
12798;SDS011;19250;42.646;26.980;2023-10-08T09:11:41;8.25;;;6.05;;
12798;SDS011;19250;42.646;26.980;2023-10-08T09:14:09;7.15;;;5.68;;
12798;SDS011;19250;42.646;26.980;2023-10-08T09:16:37;8.13;;;5.43;;
12798;SDS011;19250;42.646;26.980;2023-10-08T09:19:05;8.35;;;5.75;;
12798;SDS011;19250;42.646;26.980;2023-10-08T09:21:37;8.48;;;5.78;;
12798;SDS011;19250;42.646;26.980;2023-10-08T09:24:05;7.90;;;5.65;;
12798;SDS011;19250;42.646;26.980;2023-10-08T09:26:36;11.13;;;6.07;;
12798;SDS011;19250;42.646;26.980;2023-10-08T09:29:06;7.10;;;5.60;;
12798;SDS011;19250;42.646;26.980;2023-10-08T09:31:37;8.30;;;5.60;;
12798;SDS011;19250;42.646;26.980;2023-10-08T09:34:04;9.60;;;5.90;;
12798;SDS011;19250;42.646;26.980;2023-10-08T09:36:32;10.65;;;6.30;;
12798;SDS011;19250;42.646;26.980;2023-10-08T09:39:00;8.10;;;5.78;;
12798;SDS011;19250;42.646;26.980;2023-10-08T09:41:31;9.68;;;6.03;;
12798;SDS011;19250;42.646;26.980;2023-10-08T09:43:58;9.27;;;6.28;;
12798;SDS011;19250;42.646;26.980;2023-10-08T09:46:30;8.88;;;5.82;;
12798;SDS011;19250;42.646;26.980;2023-10-08T09:49:00;8.55;;;4.82;;
12798;SDS011;19250;42.646;26.980;2023-10-08T09:51:29;8.73;;;5.87;;
12798;SDS011;19250;42.646;26.980;2023-10-08T09:54:01;8.60;;;5.60;;
12798;SDS011;19250;42.646;26.980;2023-10-08T09:56:36;7.20;;;5.53;;
12798;SDS011;19250;42.646;26.980;2023-10-08T09:59:05;8.93;;;5.70;;
12798;SDS011;19250;42.646;26.980;2023-10-08T10:01:36;9.75;;;5.45;;
12798;SDS011;19250;42.646;26.980;2023-10-08T10:04:05;11.18;;;8.45;;
12798;SDS011;19250;42.646;26.980;2023-10-08T10:06:35;10.00;;;7.43;;
12798;SDS011;19250;42.646;26.980;2023-10-08T10:09:04;10.52;;;6.93;;
12798;SDS011;19250;42.646;26.980;2023-10-08T10:11:45;8.27;;;5.82;;
12798;SDS011;19250;42.646;26.980;2023-10-08T10:14:15;9.32;;;5.93;;
12798;SDS011;19250;42.646;26.980;2023-10-08T10:16:44;9.18;;;5.97;;
12798;SDS011;19250;42.646;26.980;2023-10-08T10:19:19;7.00;;;5.17;;
12798;SDS011;19250;42.646;26.980;2023-10-08T10:21:48;6.53;;;5.15;;
12798;SDS011;19250;42.646;26.980;2023-10-08T10:24:22;7.83;;;5.13;;
12798;SDS011;19250;42.646;26.980;2023-10-08T10:27:08;7.82;;;4.65;;
12798;SDS011;19250;42.646;26.980;2023-10-08T10:29:37;8.02;;;5.10;;
12798;SDS011;19250;42.646;26.980;2023-10-08T10:32:06;8.33;;;4.80;;
12798;SDS011;19250;42.646;26.980;2023-10-08T10:34:37;8.38;;;5.45;;
12798;SDS011;19250;42.646;26.980;2023-10-08T20:54:28;11.20;;;3.00;;
12798;SDS011;19250;42.646;26.980;2023-10-08T20:56:58;13.33;;;2.80;;
12798;SDS011;19250;42.646;26.980;2023-10-08T20:59:26;11.73;;;2.88;;
12798;SDS011;19250;42.646;26.980;2023-10-08T21:09:18;8.15;;;2.15;;
12798;SDS011;19250;42.646;26.980;2023-10-08T21:38:46;4.00;;;1.10;;
12798;SDS011;19250;42.646;26.980;2023-10-08T21:53:31;6.75;;;1.30;;
12798;SDS011;19250;42.646;26.980;2023-10-08T21:56:04;2.80;;;1.00;;
12798;SDS011;19250;42.646;26.980;2023-10-08T21:58:32;4.60;;;1.30;;
12798;SDS011;19250;42.646;26.980;2023-10-08T22:01:02;4.47;;;1.20;;
12798;SDS011;19250;42.646;26.980;2023-10-08T22:03:39;5.68;;;1.15;;
12798;SDS011;19250;42.646;26.980;2023-10-08T22:06:08;3.65;;;1.17;;
12798;SDS011;19250;42.646;26.980;2023-10-08T22:08:35;3.90;;;1.10;;
12798;SDS011;19250;42.646;26.980;2023-10-08T22:11:03;1.75;;;1.02;;
12798;SDS011;19250;42.646;26.980;2023-10-08T22:13:33;5.40;;;1.20;;
12798;SDS011;19250;42.646;26.980;2023-10-08T22:16:02;2.30;;;1.17;;
12798;SDS011;19250;42.646;26.980;2023-10-08T22:18:39;3.72;;;1.27;;
12798;SDS011;19250;42.646;26.980;2023-10-08T22:21:10;5.07;;;1.40;;
12798;SDS011;19250;42.646;26.980;2023-10-08T22:23:39;3.63;;;1.50;;
12798;SDS011;19250;42.646;26.980;2023-10-08T22:26:08;4.63;;;1.13;;
12798;SDS011;19250;42.646;26.980;2023-10-08T22:28:39;6.03;;;1.30;;
12798;SDS011;19250;42.646;26.980;2023-10-08T22:31:11;6.03;;;1.20;;
12798;SDS011;19250;42.646;26.980;2023-10-08T22:33:41;2.55;;;1.20;;
12798;SDS011;19250;42.646;26.980;2023-10-08T22:36:13;1.92;;;1.20;;
12798;SDS011;19250;42.646;26.980;2023-10-08T22:38:54;3.45;;;1.10;;
12798;SDS011;19250;42.646;26.980;2023-10-08T22:41:22;4.00;;;1.02;;
12798;SDS011;19250;42.646;26.980;2023-10-08T22:44:01;2.10;;;1.13;;
12798;SDS011;19250;42.646;26.980;2023-10-08T22:46:30;2.38;;;1.00;;
12798;SDS011;19250;42.646;26.980;2023-10-08T22:49:07;2.67;;;1.10;;
12798;SDS011;19250;42.646;26.980;2023-10-08T22:51:42;1.70;;;0.90;;
12798;SDS011;19250;42.646;26.980;2023-10-08T22:54:12;2.00;;;1.00;;
12798;SDS011;19250;42.646;26.980;2023-10-08T22:56:40;2.20;;;0.90;;
12798;SDS011;19250;42.646;26.980;2023-10-08T22:59:07;4.93;;;1.25;;
12798;SDS011;19250;42.646;26.980;2023-10-08T23:01:38;1.95;;;1.10;;
12798;SDS011;19250;42.646;26.980;2023-10-08T23:04:07;3.47;;;0.93;;
12798;SDS011;19250;42.646;26.980;2023-10-08T23:06:38;2.13;;;1.00;;
12798;SDS011;19250;42.646;26.980;2023-10-08T23:09:07;2.03;;;0.90;;
12798;SDS011;19250;42.646;26.980;2023-10-08T23:11:39;2.03;;;1.02;;
12798;SDS011;19250;42.646;26.980;2023-10-08T23:14:07;3.22;;;1.10;;
12798;SDS011;19250;42.646;26.980;2023-10-08T23:16:35;1.98;;;0.80;;
12798;SDS011;19250;42.646;26.980;2023-10-08T23:19:05;2.65;;;1.00;;
12798;SDS011;19250;42.646;26.980;2023-10-08T23:21:36;3.40;;;1.20;;
12798;SDS011;19250;42.646;26.980;2023-10-08T23:24:06;2.05;;;0.95;;
12798;SDS011;19250;42.646;26.980;2023-10-08T23:26:34;1.67;;;0.90;;
12798;SDS011;19250;42.646;26.980;2023-10-08T23:29:01;2.30;;;1.00;;
12798;SDS011;19250;42.646;26.980;2023-10-08T23:31:29;2.05;;;1.10;;
12798;SDS011;19250;42.646;26.980;2023-10-08T23:33:59;2.17;;;1.10;;
12798;SDS011;19250;42.646;26.980;2023-10-08T23:36:30;3.22;;;0.95;;
12798;SDS011;19250;42.646;26.980;2023-10-08T23:39:05;3.13;;;0.93;;
12798;SDS011;19250;42.646;26.980;2023-10-08T23:41:50;1.83;;;0.90;;
12798;SDS011;19250;42.646;26.980;2023-10-08T23:44:26;2.38;;;1.00;;
12798;SDS011;19250;42.646;26.980;2023-10-08T23:46:56;2.92;;;1.25;;
12798;SDS011;19250;42.646;26.980;2023-10-08T23:49:34;1.65;;;1.08;;
12798;SDS011;19250;42.646;26.980;2023-10-08T23:52:26;4.53;;;1.10;;
12798;SDS011;19250;42.646;26.980;2023-10-08T23:54:58;2.50;;;1.00;;
12798;SDS011;19250;42.646;26.980;2023-10-08T23:57:26;1.98;;;1.10;;
